Time;durP1;ratioP1;P1;durP2;ratioP2;P2;SDS_P1;SDS_P2;PMS_P1;PMS_P2;Temp;Humidity;BMP_temperature;BMP_pressure;BME280_temperature;BME280_humidity;BME280_pressure;Samples;Min_cycle;Max_cycle;Signal;HPM_P1;HPM_P2
2022/10/18 00:01:45;;;;;;;6.07;2.28;;;;;;;13.57;100.00;98714.25;18233470;32;20382;-63
2022/10/18 00:11:47;;;;;;;6.62;2.50;;;;;;;13.49;100.00;98699.25;18232772;32;20066;-63
2022/10/18 00:21:50;;;;;;;4.87;2.55;;;;;;;13.48;100.00;98692.19;18233957;32;20102;-63
2022/10/18 00:31:52;;;;;;;2.70;2.30;;;;;;;13.49;100.00;98701.97;18232259;32;20047;-63
2022/10/18 00:41:54;;;;;;;3.58;2.42;;;;;;;13.49;100.00;98682.16;18232992;32;20077;-63
2022/10/18 00:52:01;;;;;;;3.15;2.47;;;;;;;13.48;100.00;98681.31;18232423;32;20069;-63
2022/10/18 01:02:05;;;;;;;2.95;2.25;;;;;;;13.50;100.00;98700.91;18231821;32;20043;-63
2022/10/18 01:12:13;;;;;;;3.47;2.47;;;;;;;13.51;100.00;98688.13;18231379;32;20080;-63
2022/10/18 01:22:48;;;;;;;2.45;1.98;;;;;;;13.53;100.00;98686.78;18236360;32;20065;-63
2022/10/18 01:33:00;;;;;;;4.47;2.70;;;;;;;13.54;100.00;98685.72;18241697;32;20057;-63
2022/10/18 01:43:04;;;;;;;3.47;2.17;;;;;;;13.55;100.00;98684.63;18241000;32;20054;-63
2022/10/18 01:53:40;;;;;;;3.30;2.53;;;;;;;13.54;100.00;98687.63;18239550;32;20062;-64
2022/10/18 02:03:47;;;;;;;3.90;2.40;;;;;;;13.53;100.00;98684.06;18291698;32;20093;-63
2022/10/18 02:13:57;;;;;;;3.40;2.50;;;;;;;13.47;100.00;98677.00;18303877;32;20413;-63
2022/10/18 02:24:01;;;;;;;3.97;2.62;;;;;;;13.39;100.00;98670.16;18303404;32;20061;-63
2022/10/18 02:34:18;;;;;;;4.35;2.92;;;;;;;13.30;100.00;98687.19;18284142;32;20073;-63
2022/10/18 02:44:21;;;;;;;5.18;3.12;;;;;;;13.09;100.00;98687.06;18238237;32;20077;-63
2022/10/18 02:54:23;;;;;;;3.90;2.80;;;;;;;12.93;100.00;98698.88;18237506;32;20056;-63
2022/10/18 03:04:26;;;;;;;3.00;2.53;;;;;;;12.74;100.00;98712.03;18223455;32;20061;-63
2022/10/18 03:14:29;;;;;;;7.93;2.90;;;;;;;12.58;100.00;98720.03;18236281;32;20386;-63
2022/10/18 03:24:32;;;;;;;3.90;2.60;;;;;;;12.42;100.00;98716.34;18235157;32;20111;-63
2022/10/18 03:34:34;;;;;;;3.70;2.75;;;;;;;12.25;100.00;98732.75;18163797;32;20106;-63
2022/10/18 03:44:37;;;;;;;4.82;2.55;;;;;;;12.16;100.00;98728.84;18163166;32;20063;-63
2022/10/18 03:54:39;;;;;;;3.15;2.40;;;;;;;12.07;100.00;98750.13;18162689;32;20067;-63
2022/10/18 04:04:42;;;;;;;3.35;2.45;;;;;;;11.96;100.00;98761.94;18073793;32;20122;-63
2022/10/18 04:14:44;;;;;;;3.92;2.53;;;;;;;11.86;100.00;98766.13;18037818;32;20447;-63
2022/10/18 04:24:46;;;;;;;7.00;2.55;;;;;;;11.74;100.00;98770.84;18037303;32;20086;-63
2022/10/18 04:34:49;;;;;;;5.55;2.28;;;;;;;11.66;100.00;98773.97;18134640;32;20079;-63
2022/10/18 04:44:51;;;;;;;2.53;2.20;;;;;;;11.60;100.00;98753.31;18217543;32;20062;-63
2022/10/18 04:54:54;;;;;;;5.03;2.53;;;;;;;11.50;100.00;98754.81;18231692;32;20058;-63
2022/10/18 05:04:56;;;;;;;3.22;2.30;;;;;;;11.46;100.00;98761.78;18232106;32;20051;-63
2022/10/18 05:14:59;;;;;;;3.72;2.50;;;;;;;11.52;100.00;98760.81;18230613;32;20077;-62
2022/10/18 05:25:01;;;;;;;3.33;2.30;;;;;;;11.58;100.00;98756.28;18231417;32;20358;-63
2022/10/18 05:35:04;;;;;;;3.42;2.45;;;;;;;11.71;100.00;98776.75;18217134;32;20443;-63
2022/10/18 05:45:08;;;;;;;4.10;2.85;;;;;;;11.82;100.00;98778.53;18228867;32;20442;-63
2022/10/18 05:55:11;;;;;;;3.10;2.42;;;;;;;11.89;100.00;98783.78;18229413;32;20095;-63
2022/10/18 06:05:15;;;;;;;4.78;2.60;;;;;;;11.97;100.00;98786.09;18230174;32;20062;-63
2022/10/18 06:15:19;;;;;;;5.70;2.80;;;;;;;12.01;100.00;98787.22;18238326;32;20091;-63
2022/10/18 06:25:22;;;;;;;5.55;3.05;;;;;;;12.09;100.00;98804.94;18239152;32;20557;-63
2022/10/18 06:35:25;;;;;;;4.68;2.62;;;;;;;12.16;100.00;98799.34;18237733;32;20438;-63
2022/10/18 06:45:31;;;;;;;3.15;2.80;;;;;;;12.09;100.00;98799.53;18237841;32;20332;-63
2022/10/18 06:55:35;;;;;;;3.20;2.35;;;;;;;12.09;100.00;98815.78;18165338;32;20130;-63
2022/10/18 07:05:38;;;;;;;2.73;2.37;;;;;;;12.26;100.00;98829.28;18152614;32;20062;-63
2022/10/18 07:15:42;;;;;;;3.28;2.62;;;;;;;12.64;100.00;98832.16;18164345;32;20387;-63
2022/10/18 07:25:48;;;;;;;4.68;2.90;;;;;;;12.96;100.00;98817.81;18175223;32;20062;-63
2022/10/18 07:35:54;;;;;;;3.70;2.80;;;;;;;13.43;100.00;98841.63;18234778;32;20058;-63
2022/10/18 07:46:04;;;;;;;2.70;2.30;;;;;;;13.88;100.00;98843.00;18235117;32;20098;-63
2022/10/18 07:56:22;;;;;;;2.97;2.35;;;;;;;14.51;100.00;98847.66;18235075;32;20047;-63
2022/10/18 08:06:32;;;;;;;3.47;2.70;;;;;;;14.89;100.00;98837.41;18234593;32;20404;-63
2022/10/18 08:16:40;;;;;;;3.37;3.00;;;;;;;15.06;100.00;98842.63;18233201;32;20053;-63
2022/10/18 08:26:44;;;;;;;3.37;2.00;;;;;;;14.95;100.00;98848.34;18219357;32;20469;-63
2022/10/18 08:37:22;;;;;;;3.75;2.70;;;;;;;15.52;100.00;98838.28;18231868;32;20376;-63
2022/10/18 08:47:42;;;;;;;3.60;2.50;;;;;;;16.15;100.00;98848.81;18232619;32;20126;-63
2022/10/18 08:57:56;;;;;;;3.83;2.53;;;;;;;16.43;100.00;98857.44;18231984;32;20079;-61
2022/10/18 09:08:29;;;;;;;4.12;2.95;;;;;;;16.70;100.00;98853.53;18231950;32;20050;-61
2022/10/18 09:18:48;;;;;;;4.10;2.92;;;;;;;16.99;100.00;98847.38;18230255;32;20077;-61
2022/10/18 09:29:27;;;;;;;;;;;;;;;;;;;;;
2022/10/18 09:40:14;;;;;;;4.40;2.80;;;;;;;17.90;100.00;98838.69;18295976;32;20145;-61
2022/10/18 09:50:29;;;;;;;;;;;;;;;18.12;100.00;98852.69;18305494;32;20085;-61
2022/10/18 10:00:48;;;;;;;6.95;2.85;;;;;;;18.18;100.00;98845.22;18304991;32;19956;-61
2022/10/18 10:11:17;;;;;;;6.75;3.28;;;;;;;18.41;100.00;98846.34;18271108;32;20371;-61
2022/10/18 10:21:38;;;;;;;5.53;3.45;;;;;;;18.44;99.79;98848.47;18238126;32;20046;-61
2022/10/18 10:31:43;;;;;;;5.43;3.05;;;;;;;18.53;96.78;98845.13;18238847;32;20066;-61
2022/10/18 10:41:54;;;;;;;3.33;2.60;;;;;;;18.69;96.97;98823.78;18238432;32;20063;-61
2022/10/18 10:52:02;;;;;;;3.60;2.40;;;;;;;18.80;94.47;98814.31;18237097;32;20088;-61
2022/10/18 11:02:30;;;;;;;4.03;2.62;;;;;;;18.91;94.17;98826.81;18237482;32;20435;-61
2022/10/18 11:13:03;;;;;;;3.10;2.35;;;;;;;19.02;92.91;98815.66;18235900;32;20483;-61
2022/10/18 11:23:13;;;;;;;7.22;2.40;;;;;;;19.26;90.72;98813.63;18040538;32;20101;-61
2022/10/18 11:33:25;;;;;;;5.25;1.75;;;;;;;19.62;84.68;98804.81;18040213;32;20130;-61
2022/10/18 11:43:59;;;;;;;4.35;1.98;;;;;;;20.21;81.68;98809.75;18039738;32;20117;-61
2022/10/18 11:54:41;;;;;;;3.95;1.83;;;;;;;20.60;78.82;98805.63;18091742;32;20163;-61
2022/10/18 12:04:54;;;;;;;2.22;1.70;;;;;;;20.89;73.96;98787.97;18235222;32;20062;-61
2022/10/18 12:15:27;;;;;;;3.40;1.87;;;;;;;21.12;74.24;98772.28;18234392;32;20076;-61
2022/10/18 12:25:36;;;;;;;4.53;1.80;;;;;;;21.37;74.56;98769.22;18232909;32;20058;-61
2022/10/18 12:36:07;;;;;;;2.40;1.42;;;;;;;21.75;75.90;98755.84;18233485;32;20446;-61
2022/10/18 12:46:18;;;;;;;3.25;1.75;;;;;;;21.91;72.63;98752.66;18232662;32;20110;-61
2022/10/18 12:56:40;;;;;;;2.00;1.40;;;;;;;21.59;69.56;98736.16;18232271;32;20034;-61
2022/10/18 13:07:01;;;;;;;3.22;1.77;;;;;;;21.37;71.25;98726.00;18231935;32;20054;-61
2022/10/18 13:17:37;;;;;;;3.95;2.50;;;;;;;21.08;74.54;98721.00;18241594;32;20361;-61
2022/10/18 13:27:57;;;;;;;2.95;1.92;;;;;;;21.02;72.75;98719.47;18251876;32;20051;-61
2022/10/18 13:38:41;;;;;;;3.65;2.08;;;;;;;20.81;74.37;98718.03;18241559;32;20103;-61
2022/10/18 13:48:58;;;;;;;5.53;1.83;;;;;;;20.64;76.04;98712.41;18227134;32;20422;-60
2022/10/18 13:59:13;;;;;;;5.10;1.95;;;;;;;20.56;75.43;98713.94;18228674;32;20062;-61
2022/10/18 14:09:20;;;;;;;3.22;1.70;;;;;;;20.46;76.82;98706.75;18230005;32;20062;-61
2022/10/18 14:20:01;;;;;;;2.40;1.55;;;;;;;20.28;78.26;98711.28;18249708;32;20450;-61
2022/10/18 14:30:13;;;;;;;2.55;1.60;;;;;;;20.19;78.93;98706.84;18241711;32;20055;-61
2022/10/18 14:40:32;;;;;;;2.70;1.57;;;;;;;20.05;79.94;98712.31;18239137;32;20085;-61
2022/10/18 14:50:37;;;;;;;2.53;1.40;;;;;;;19.88;82.35;98704.72;18238696;32;20445;-61
2022/10/18 15:00:40;;;;;;;4.68;1.62;;;;;;;19.73;82.69;98700.34;18223986;32;20106;-61
2022/10/18 15:10:49;;;;;;;2.72;1.58;;;;;;;19.52;84.83;98688.97;18237178;32;20068;-61
2022/10/18 15:21:21;;;;;;;2.10;1.52;;;;;;;19.34;86.97;98683.25;18235742;32;20464;-61
2022/10/18 15:31:36;;;;;;;3.47;1.73;;;;;;;19.16;89.26;98665.75;18235405;32;20109;-61
2022/10/18 15:41:50;;;;;;;3.03;1.48;;;;;;;18.88;91.25;98662.94;18222379;32;20054;-61
2022/10/18 15:52:22;;;;;;;4.07;1.30;;;;;;;18.59;93.34;98652.97;18234445;32;20053;-61
2022/10/18 16:02:25;;;;;;;1.92;1.23;;;;;;;18.29;95.73;98654.28;18297208;32;20499;-61
2022/10/18 16:12:29;;;;;;;6.03;1.52;;;;;;;18.02;98.31;98644.00;18297025;32;20078;-61
2022/10/18 16:22:33;;;;;;;;;;;;;;;17.72;100.00;98651.47;18284382;32;20119;-61
2022/10/18 16:32:39;;;;;;;6.72;4.37;;;;;;;17.42;100.00;98637.88;18217978;32;19962;-60
2022/10/18 16:42:42;;;;;;;4.93;3.12;;;;;;;17.10;100.00;98641.25;18148464;32;20071;-61
2022/10/18 16:52:44;;;;;;;5.45;2.20;;;;;;;16.73;100.00;98642.66;18159583;32;20066;-61
2022/10/18 17:02:48;;;;;;;9.23;2.53;;;;;;;16.41;100.00;98644.00;18217062;32;20059;-60
2022/10/18 17:12:51;;;;;;;7.18;2.03;;;;;;;16.10;100.00;98657.84;18230450;32;20355;-60
2022/10/18 17:22:53;;;;;;;26.80;17.42;;;;;;;15.82;100.00;98660.19;18231671;32;20069;-60
2022/10/18 17:32:56;;;;;;;7.65;4.35;;;;;;;15.53;100.00;98666.28;18217037;32;20111;-60
2022/10/18 17:42:59;;;;;;;4.57;2.05;;;;;;;15.28;100.00;98677.25;18229156;32;20114;-61
2022/10/18 17:53:01;;;;;;;6.35;3.70;;;;;;;15.05;100.00;98677.56;18230082;32;20082;-61
2022/10/18 18:03:04;;;;;;;16.17;5.30;;;;;;;14.89;100.00;98690.37;18234303;32;20378;-61
2022/10/18 18:13:08;;;;;;;34.95;19.62;;;;;;;14.70;100.00;98687.41;18239846;32;20102;-60
2022/10/18 18:23:11;;;;;;;27.73;16.63;;;;;;;14.56;100.00;98692.50;18239173;32;20074;-60
2022/10/18 18:33:14;;;;;;;7.32;4.45;;;;;;;14.38;100.00;98695.78;18239113;32;20085;-61
2022/10/18 18:43:17;;;;;;;4.95;2.50;;;;;;;14.22;100.00;98692.19;18237625;32;20046;-60
2022/10/18 18:53:24;;;;;;;5.85;2.62;;;;;;;14.08;100.00;98694.62;18236908;32;20089;-61
2022/10/18 19:03:30;;;;;;;5.43;2.85;;;;;;;13.90;100.00;98696.72;18236499;32;20050;-60
2022/10/18 19:13:33;;;;;;;5.00;2.80;;;;;;;13.80;100.00;98693.97;18235634;32;20042;-60
2022/10/18 19:23:36;;;;;;;11.40;8.00;;;;;;;13.74;100.00;98708.62;18235510;32;20091;-60
2022/10/18 19:33:39;;;;;;;16.55;7.05;;;;;;;13.66;100.00;98703.69;18235334;32;20054;-61
2022/10/18 19:44:01;;;;;;;8.73;4.10;;;;;;;13.55;100.00;98691.97;18235939;32;20076;-63
2022/10/18 19:54:04;;;;;;;4.57;3.10;;;;;;;13.42;100.00;98689.72;18235177;32;20090;-63
2022/10/18 20:04:09;;;;;;;6.10;2.67;;;;;;;13.30;100.00;98689.91;18235297;32;20051;-63
2022/10/18 20:14:12;;;;;;;4.05;2.83;;;;;;;13.17;100.00;98702.03;18234648;32;20114;-63
2022/10/18 20:24:15;;;;;;;9.82;3.30;;;;;;;13.14;100.00;98706.09;18233427;32;20096;-62
2022/10/18 20:34:20;;;;;;;8.90;2.95;;;;;;;13.06;100.00;98701.16;18232483;32;20404;-62
2022/10/18 20:44:25;;;;;;;7.90;3.33;;;;;;;12.95;100.00;98702.97;18232340;32;20077;-63
2022/10/18 20:54:28;;;;;;;7.37;3.70;;;;;;;12.86;100.00;98699.91;18232958;32;20047;-63
2022/10/18 21:04:30;;;;;;;4.90;3.42;;;;;;;12.77;100.00;98701.50;18232515;32;20059;-63
2022/10/18 21:14:33;;;;;;;4.90;2.92;;;;;;;12.67;100.00;98707.63;18231776;32;20083;-63
2022/10/18 21:24:36;;;;;;;3.85;2.83;;;;;;;12.56;100.00;98705.09;18084640;32;20108;-63
2022/10/18 21:34:38;;;;;;;7.85;2.80;;;;;;;12.47;100.00;98689.28;18097863;32;20152;-63
2022/10/18 21:44:40;;;;;;;4.50;3.40;;;;;;;12.38;100.00;98688.09;18032887;32;20087;-63
2022/10/18 21:54:43;;;;;;;7.15;4.40;;;;;;;12.28;100.00;98677.16;18179560;32;20126;-63
2022/10/18 22:04:45;;;;;;;4.70;3.37;;;;;;;12.16;100.00;98680.84;18230945;32;20111;-63
2022/10/18 22:14:48;;;;;;;6.30;3.72;;;;;;;12.06;100.00;98664.47;18219308;32;20169;-63
2022/10/18 22:24:50;;;;;;;4.85;3.60;;;;;;;11.98;100.00;98673.06;18239190;32;20069;-63
2022/10/18 22:34:52;;;;;;;5.72;2.83;;;;;;;11.89;100.00;98663.72;18167115;32;20124;-63
2022/10/18 22:44:55;;;;;;;5.12;3.20;;;;;;;11.81;100.00;98654.97;18154001;32;20570;-63
2022/10/18 22:54:57;;;;;;;2.85;2.60;;;;;;;11.76;100.00;98646.78;18165451;32;20104;-63
2022/10/18 23:04:59;;;;;;;4.68;2.78;;;;;;;11.64;100.00;98646.09;18222198;32;20070;-63
2022/10/18 23:15:02;;;;;;;8.93;2.65;;;;;;;11.56;100.00;98633.81;18152809;32;20070;-63
2022/10/18 23:25:04;;;;;;;5.62;2.92;;;;;;;11.50;100.00;98629.41;18164653;32;20085;-63
2022/10/18 23:35:07;;;;;;;4.62;2.83;;;;;;;11.43;100.00;98626.88;18164298;32;20271;-63
2022/10/18 23:45:10;;;;;;;3.70;2.50;;;;;;;11.36;100.00;98613.53;18220693;32;20055;-63
2022/10/18 23:55:12;;;;;;;2.80;2.50;;;;;;;11.27;100.00;98608.81;18234324;32;20089;-63
